2006 HELENE (2006256N12338)


On this page: IBTrACS data - Map and Plots - Positions - Intensities - Original source data

Summary

Start Sep 12
End Sep 27
Basin NA
LMI 105 kt
Sources hurdat_atl
atcf
In WMO? Yes
Previous storm 2006 GORDON (NA)
Previous in basin 2006 GORDON (NA)
Concurrent storms 2006 FLORENCE (NA)
2006 SHANSHAN (WP)
2006 TD0912 (WP)
2006 GORDON (NA)
2006 HELENE (NA)
2006 LANE (EP)
2006 TWO (EP)
2006 MIRIAM (EP)
2006 YAGI (WP)
2006 MUKDA (NI)
2006 TD0922 (WP)
2006 MISSING (NI)
2006 THREE (EP)
2006 XANGSANE (WP)
2006 ISAAC (NA)
Next in basin 2006 ISAAC (NA)
Next storm 2006 LANE (EP)

top of page IBTrACS Data: File Access

top of page HURSAT Data: File Access

Image of storm

top of page Plots:

Map of storm track will not appear if FTP is down
Time series of cyclone Maximum Sustained Wind will not appear if FTP is down
Time series of cyclone Minimum Central Pressure will not appear if FTP is down

top of page Track Data:Position

hurdat_atl atcf
Date Lat Lon Lat Lon
2006-09-12 12:00:00 11.9 -22.0 11.9 -22.0
2006-09-12 18:00:00 11.9 -23.2 11.9 -23.2
2006-09-13 00:00:00 11.9 -24.6 11.9 -24.6
2006-09-13 06:00:00 12.0 -26.1 12.0 -26.1
2006-09-13 12:00:00 12.2 -28.0 12.2 -28.0
2006-09-13 18:00:00 12.5 -30.0 12.5 -30.0
2006-09-14 00:00:00 12.9 -31.9 12.9 -31.9
2006-09-14 06:00:00 13.2 -33.8 13.2 -33.8
2006-09-14 12:00:00 13.6 -35.6 13.6 -35.6
2006-09-14 18:00:00 14.0 -37.0 14.0 -37.0
2006-09-15 00:00:00 14.4 -38.3 14.4 -38.3
2006-09-15 06:00:00 14.8 -39.6 14.8 -39.6
2006-09-15 12:00:00 15.5 -40.8 15.5 -40.8
2006-09-15 18:00:00 16.2 -42.1 16.2 -42.1
2006-09-16 00:00:00 17.0 -43.3 17.0 -43.3
2006-09-16 06:00:00 17.7 -44.3 17.7 -44.3
2006-09-16 12:00:00 18.4 -45.3 18.4 -45.3
2006-09-16 18:00:00 18.9 -46.2 18.9 -46.2
2006-09-17 00:00:00 19.4 -47.1 19.4 -47.1
2006-09-17 06:00:00 19.9 -47.9 19.9 -47.9
2006-09-17 12:00:00 20.3 -48.4 20.3 -48.4
2006-09-17 18:00:00 20.8 -48.8 20.8 -48.8
2006-09-18 00:00:00 21.4 -49.1 21.4 -49.1
2006-09-18 06:00:00 22.0 -49.4 22.0 -49.4
2006-09-18 12:00:00 22.7 -49.7 22.7 -49.7
hurdat_atl atcf
2006-09-18 18:00:00 23.6 -50.4 23.6 -50.4
2006-09-19 00:00:00 24.0 -51.0 24.0 -51.0
2006-09-19 06:00:00 24.3 -51.7 24.3 -51.7
2006-09-19 12:00:00 24.4 -52.5 24.4 -52.5
2006-09-19 18:00:00 24.4 -53.5 24.4 -53.5
2006-09-20 00:00:00 24.5 -54.4 24.5 -54.4
2006-09-20 06:00:00 24.9 -55.2 24.9 -55.2
2006-09-20 12:00:00 25.4 -56.0 25.4 -56.0
2006-09-20 18:00:00 25.9 -56.7 25.9 -56.7
2006-09-21 00:00:00 26.8 -57.0 26.8 -57.0
2006-09-21 06:00:00 27.8 -57.0 27.8 -57.0
2006-09-21 12:00:00 29.0 -57.0 29.0 -57.0
2006-09-21 18:00:00 30.2 -57.0 30.2 -57.0
2006-09-22 00:00:00 31.4 -56.6 31.4 -56.6
2006-09-22 06:00:00 32.5 -55.9 32.5 -55.9
2006-09-22 12:00:00 33.6 -55.1 33.6 -55.1
2006-09-22 18:00:00 34.9 -53.7 34.9 -53.7
2006-09-23 00:00:00 35.7 -51.7 35.7 -51.7
2006-09-23 06:00:00 36.4 -49.6 36.4 -49.6
2006-09-23 12:00:00 37.1 -47.5 37.1 -47.5
2006-09-23 18:00:00 37.7 -45.4 37.7 -45.4
2006-09-24 00:00:00 38.6 -43.2 38.6 -43.2
2006-09-24 06:00:00 39.5 -40.9 39.5 -40.9
2006-09-24 12:00:00 40.6 -38.2 40.6 -38.2
hurdat_atl atcf
2006-09-24 18:00:00 42.0 -35.9 42.0 -35.9
2006-09-25 00:00:00 43.2 -34.7 43.2 -34.7
2006-09-25 06:00:00 44.1 -33.3 44.1 -33.3
2006-09-25 12:00:00 44.7 -31.7 44.7 -31.7
2006-09-25 18:00:00 44.9 -29.8 44.9 -29.8
2006-09-26 00:00:00 45.0 -27.6 45.0 -27.6
2006-09-26 06:00:00 45.5 -25.2 45.5 -25.2
2006-09-26 12:00:00 46.0 -22.7 46.0 -22.7
2006-09-26 18:00:00 47.2 -20.1 47.2 -20.1
2006-09-27 00:00:00 49.0 -17.0 49.0 -17.0
2006-09-27 06:00:00 51.3 -13.3 51.3 -13.3
2006-09-27 12:00:00 53.9 -10.1 53.9 -10.1
2006-09-27 18:00:00 56.3 -7.6 56.3 -7.6

top of pageTrack Data:Intensity

hurdat_atl atcf
Date Wind Pres Wind Pres
2006-09-12 12:00:00 25. 1007. 25. 1007.
2006-09-12 18:00:00 30. 1007. 30. 1007.
2006-09-13 00:00:00 30. 1007. 30. 1007.
2006-09-13 06:00:00 30. 1007. 30. 1007.
2006-09-13 12:00:00 30. 1007. 30. 1007.
2006-09-13 18:00:00 30. 1006. 30. 1006.
2006-09-14 00:00:00 35. 1005. 35. 1005.
2006-09-14 06:00:00 35. 1005. 35. 1005.
2006-09-14 12:00:00 40. 1003. 40. 1003.
2006-09-14 18:00:00 40. 1003. 40. 1003.
2006-09-15 00:00:00 40. 1002. 40. 1002.
2006-09-15 06:00:00 45. 1000. 45. 1000.
2006-09-15 12:00:00 50. 997. 50. 997.
2006-09-15 18:00:00 55. 995. 55. 995.
2006-09-16 00:00:00 60. 992. 60. 992.
2006-09-16 06:00:00 60. 990. 60. 990.
2006-09-16 12:00:00 65. 987. 65. 987.
2006-09-16 18:00:00 65. 986. 65. 986.
2006-09-17 00:00:00 70. 983. 70. 983.
2006-09-17 06:00:00 75. 979. 75. 979.
2006-09-17 12:00:00 80. 976. 80. 976.
2006-09-17 18:00:00 90. 970. 90. 970.
2006-09-18 00:00:00 100. 962. 100. 962.
2006-09-18 06:00:00 105. 955. 105. 955.
2006-09-18 12:00:00 105. 958. 105. 958.
hurdat_atl atcf
2006-09-18 18:00:00 95. 962. 95. 962.
2006-09-19 00:00:00 95. 962. 95. 962.
2006-09-19 06:00:00 95. 960. 95. 960.
2006-09-19 12:00:00 95. 958. 95. 958.
2006-09-19 18:00:00 90. 956. 90. 956.
2006-09-20 00:00:00 90. 958. 90. 958.
2006-09-20 06:00:00 90. 958. 90. 958.
2006-09-20 12:00:00 90. 959. 90. 959.
2006-09-20 18:00:00 80. 960. 80. 960.
2006-09-21 00:00:00 80. 962. 80. 962.
2006-09-21 06:00:00 75. 964. 75. 964.
2006-09-21 12:00:00 75. 968. 75. 968.
2006-09-21 18:00:00 75. 970. 75. 970.
2006-09-22 00:00:00 75. 970. 75. 970.
2006-09-22 06:00:00 70. 970. 70. 970.
2006-09-22 12:00:00 70. 970. 70. 970.
2006-09-22 18:00:00 70. 968. 70. 968.
2006-09-23 00:00:00 75. 964. 75. 964.
2006-09-23 06:00:00 80. 962. 80. 962.
2006-09-23 12:00:00 80. 962. 80. 962.
2006-09-23 18:00:00 75. 963. 75. 963.
2006-09-24 00:00:00 70. 964. 70. 964.
2006-09-24 06:00:00 65. 964. 65. 964.
2006-09-24 12:00:00 65. 964. 65. 964.
hurdat_atl atcf
2006-09-24 18:00:00 65. 964. 65. 964.
2006-09-25 00:00:00 65. 964. 65. 964.
2006-09-25 06:00:00 65. 966. 65. 966.
2006-09-25 12:00:00 60. 968. 60. 968.
2006-09-25 18:00:00 55. 972. 55. 972.
2006-09-26 00:00:00 50. 977. 50. 977.
2006-09-26 06:00:00 50. 980. 50. 980.
2006-09-26 12:00:00 50. 984. 50. 984.
2006-09-26 18:00:00 45. 986. 45. 986.
2006-09-27 00:00:00 45. 988. 45. 988.
2006-09-27 06:00:00 45. 988. 45. 988.
2006-09-27 12:00:00 40. 988. 40. 988.
2006-09-27 18:00:00 40. 988. 40. 988.

top of page Links to source data

Source Source file Format
hurdat_atl tracks1851to2011.txt:1386:HELENE HURDAT
atcf bal092006.dat ATCF